sensor_id;sensor_type;location;lat;lon;timestamp;temperature;humidity
44271;DHT22;29963;44.594;11.368;2024-03-22T00:01:45;15.30;99.90
44271;DHT22;29963;44.594;11.368;2024-03-22T00:04:11;15.30;99.90
44271;DHT22;29963;44.594;11.368;2024-03-22T00:06:37;15.30;99.90
44271;DHT22;29963;44.594;11.368;2024-03-22T00:09:03;15.30;99.90
44271;DHT22;29963;44.594;11.368;2024-03-22T00:11:29;15.30;99.90
44271;DHT22;29963;44.594;11.368;2024-03-22T00:13:54;15.40;99.90
44271;DHT22;29963;44.594;11.368;2024-03-22T00:16:20;15.40;99.90
44271;DHT22;29963;44.594;11.368;2024-03-22T00:18:46;15.40;99.90
44271;DHT22;29963;44.594;11.368;2024-03-22T00:21:11;15.40;99.90
44271;DHT22;29963;44.594;11.368;2024-03-22T00:23:37;15.40;99.90
44271;DHT22;29963;44.594;11.368;2024-03-22T00:26:02;15.50;99.90
44271;DHT22;29963;44.594;11.368;2024-03-22T00:28:28;15.40;99.90
44271;DHT22;29963;44.594;11.368;2024-03-22T00:30:54;15.50;99.90
44271;DHT22;29963;44.594;11.368;2024-03-22T00:33:19;15.40;99.90
44271;DHT22;29963;44.594;11.368;2024-03-22T00:35:45;15.40;99.90
44271;DHT22;29963;44.594;11.368;2024-03-22T00:38:11;15.30;99.90
44271;DHT22;29963;44.594;11.368;2024-03-22T00:40:36;15.30;99.90
44271;DHT22;29963;44.594;11.368;2024-03-22T00:43:02;15.30;99.90
44271;DHT22;29963;44.594;11.368;2024-03-22T00:45:28;15.30;99.90
44271;DHT22;29963;44.594;11.368;2024-03-22T00:47:53;15.30;99.90
44271;DHT22;29963;44.594;11.368;2024-03-22T00:50:19;15.30;99.90
44271;DHT22;29963;44.594;11.368;2024-03-22T00:52:44;15.20;99.90
44271;DHT22;29963;44.594;11.368;2024-03-22T00:55:10;15.10;99.90
44271;DHT22;29963;44.594;11.368;2024-03-22T00:57:36;15.10;99.90
44271;DHT22;29963;44.594;11.368;2024-03-22T01:00:01;15.10;99.90
44271;DHT22;29963;44.594;11.368;2024-03-22T01:02:27;15.10;99.90
44271;DHT22;29963;44.594;11.368;2024-03-22T01:04:53;15.10;99.90
44271;DHT22;29963;44.594;11.368;2024-03-22T01:07:18;15.10;99.90
44271;DHT22;29963;44.594;11.368;2024-03-22T01:09:44;15.10;99.90
44271;DHT22;29963;44.594;11.368;2024-03-22T01:12:10;15.10;99.90
44271;DHT22;29963;44.594;11.368;2024-03-22T01:14:36;15.00;99.90
44271;DHT22;29963;44.594;11.368;2024-03-22T01:17:02;15.00;99.90
44271;DHT22;29963;44.594;11.368;2024-03-22T01:19:27;15.00;99.90
44271;DHT22;29963;44.594;11.368;2024-03-22T01:21:53;14.90;99.90
44271;DHT22;29963;44.594;11.368;2024-03-22T01:24:19;14.90;99.90
44271;DHT22;29963;44.594;11.368;2024-03-22T01:26:44;14.90;99.90
44271;DHT22;29963;44.594;11.368;2024-03-22T01:29:10;14.90;99.90
44271;DHT22;29963;44.594;11.368;2024-03-22T01:31:36;14.90;99.90
44271;DHT22;29963;44.594;11.368;2024-03-22T01:34:01;14.80;99.90
44271;DHT22;29963;44.594;11.368;2024-03-22T01:36:27;14.80;99.90
44271;DHT22;29963;44.594;11.368;2024-03-22T01:38:52;14.90;99.90
44271;DHT22;29963;44.594;11.368;2024-03-22T01:41:18;14.80;99.90
44271;DHT22;29963;44.594;11.368;2024-03-22T01:43:44;14.70;99.90
44271;DHT22;29963;44.594;11.368;2024-03-22T01:46:09;14.70;99.90
44271;DHT22;29963;44.594;11.368;2024-03-22T01:48:35;14.60;99.90
44271;DHT22;29963;44.594;11.368;2024-03-22T01:51:02;14.50;99.90
44271;DHT22;29963;44.594;11.368;2024-03-22T01:53:29;14.40;99.90
44271;DHT22;29963;44.594;11.368;2024-03-22T01:55:54;14.40;99.90
44271;DHT22;29963;44.594;11.368;2024-03-22T01:58:21;14.00;99.90
44271;DHT22;29963;44.594;11.368;2024-03-22T02:00:47;14.20;99.90
44271;DHT22;29963;44.594;11.368;2024-03-22T02:03:13;14.20;99.90
44271;DHT22;29963;44.594;11.368;2024-03-22T02:05:38;14.00;99.90
44271;DHT22;29963;44.594;11.368;2024-03-22T02:08:04;13.90;99.90
44271;DHT22;29963;44.594;11.368;2024-03-22T02:10:30;13.90;99.90
44271;DHT22;29963;44.594;11.368;2024-03-22T02:12:56;13.80;99.90
44271;DHT22;29963;44.594;11.368;2024-03-22T02:15:22;13.90;99.90
44271;DHT22;29963;44.594;11.368;2024-03-22T02:17:48;13.90;99.90
44271;DHT22;29963;44.594;11.368;2024-03-22T02:20:13;13.70;99.90
44271;DHT22;29963;44.594;11.368;2024-03-22T02:22:39;13.60;99.90
44271;DHT22;29963;44.594;11.368;2024-03-22T02:25:05;13.90;99.90
44271;DHT22;29963;44.594;11.368;2024-03-22T02:27:30;13.70;99.90
44271;DHT22;29963;44.594;11.368;2024-03-22T02:29:56;13.60;99.90
44271;DHT22;29963;44.594;11.368;2024-03-22T02:32:22;13.50;99.90
44271;DHT22;29963;44.594;11.368;2024-03-22T02:34:47;13.50;99.90
44271;DHT22;29963;44.594;11.368;2024-03-22T02:37:13;13.40;99.90
44271;DHT22;29963;44.594;11.368;2024-03-22T02:39:39;13.20;99.90
44271;DHT22;29963;44.594;11.368;2024-03-22T02:42:04;13.30;99.90
44271;DHT22;29963;44.594;11.368;2024-03-22T02:44:30;13.30;99.90
44271;DHT22;29963;44.594;11.368;2024-03-22T02:46:56;12.80;99.90
44271;DHT22;29963;44.594;11.368;2024-03-22T02:49:21;13.10;99.90
44271;DHT22;29963;44.594;11.368;2024-03-22T02:51:47;13.10;99.90
44271;DHT22;29963;44.594;11.368;2024-03-22T02:54:14;12.90;99.90
44271;DHT22;29963;44.594;11.368;2024-03-22T02:56:40;12.90;99.90
44271;DHT22;29963;44.594;11.368;2024-03-22T02:59:05;12.80;99.90
44271;DHT22;29963;44.594;11.368;2024-03-22T03:01:31;12.60;99.90
44271;DHT22;29963;44.594;11.368;2024-03-22T03:03:56;12.50;99.90
44271;DHT22;29963;44.594;11.368;2024-03-22T03:06:22;12.50;99.90
44271;DHT22;29963;44.594;11.368;2024-03-22T03:08:48;12.30;99.90
44271;DHT22;29963;44.594;11.368;2024-03-22T03:11:14;12.30;99.90
44271;DHT22;29963;44.594;11.368;2024-03-22T03:13:40;12.20;99.90
44271;DHT22;29963;44.594;11.368;2024-03-22T03:16:06;12.30;99.90
44271;DHT22;29963;44.594;11.368;2024-03-22T03:18:31;12.30;99.90
44271;DHT22;29963;44.594;11.368;2024-03-22T03:20:57;12.50;99.90
44271;DHT22;29963;44.594;11.368;2024-03-22T03:23:22;12.60;99.90
44271;DHT22;29963;44.594;11.368;2024-03-22T03:25:48;12.70;99.90
44271;DHT22;29963;44.594;11.368;2024-03-22T03:30:40;12.50;99.90
44271;DHT22;29963;44.594;11.368;2024-03-22T03:33:06;12.50;99.90
44271;DHT22;29963;44.594;11.368;2024-03-22T03:35:31;12.50;99.90
44271;DHT22;29963;44.594;11.368;2024-03-22T03:37:57;12.40;99.90
44271;DHT22;29963;44.594;11.368;2024-03-22T03:40:22;12.20;99.90
44271;DHT22;29963;44.594;11.368;2024-03-22T03:42:50;12.30;99.90
44271;DHT22;29963;44.594;11.368;2024-03-22T03:45:16;12.30;99.90
44271;DHT22;29963;44.594;11.368;2024-03-22T03:47:42;12.30;99.90
44271;DHT22;29963;44.594;11.368;2024-03-22T03:50:08;12.40;99.90
44271;DHT22;29963;44.594;11.368;2024-03-22T03:52:33;12.30;99.90
44271;DHT22;29963;44.594;11.368;2024-03-22T03:54:59;12.20;99.90
44271;DHT22;29963;44.594;11.368;2024-03-22T03:57:24;12.10;99.90
44271;DHT22;29963;44.594;11.368;2024-03-22T03:59:50;12.10;99.90
44271;DHT22;29963;44.594;11.368;2024-03-22T04:02:16;12.00;99.90
44271;DHT22;29963;44.594;11.368;2024-03-22T04:04:41;12.00;99.90
44271;DHT22;29963;44.594;11.368;2024-03-22T04:07:07;12.10;99.90
44271;DHT22;29963;44.594;11.368;2024-03-22T04:09:33;12.20;99.90
44271;DHT22;29963;44.594;11.368;2024-03-22T04:11:59;12.10;99.90
44271;DHT22;29963;44.594;11.368;2024-03-22T04:14:25;11.90;99.90
44271;DHT22;29963;44.594;11.368;2024-03-22T04:16:51;11.90;99.90
44271;DHT22;29963;44.594;11.368;2024-03-22T04:19:20;12.00;99.90
44271;DHT22;29963;44.594;11.368;2024-03-22T04:21:46;12.00;99.90
44271;DHT22;29963;44.594;11.368;2024-03-22T04:24:12;11.80;99.90
44271;DHT22;29963;44.594;11.368;2024-03-22T04:26:37;11.70;99.90
44271;DHT22;29963;44.594;11.368;2024-03-22T04:29:03;11.60;99.90
44271;DHT22;29963;44.594;11.368;2024-03-22T04:31:29;11.50;99.90
44271;DHT22;29963;44.594;11.368;2024-03-22T04:33:54;11.50;99.90
44271;DHT22;29963;44.594;11.368;2024-03-22T04:36:20;11.40;99.90
44271;DHT22;29963;44.594;11.368;2024-03-22T04:38:45;11.20;99.90
44271;DHT22;29963;44.594;11.368;2024-03-22T04:41:11;11.10;99.90
44271;DHT22;29963;44.594;11.368;2024-03-22T04:43:37;11.00;99.90
44271;DHT22;29963;44.594;11.368;2024-03-22T04:46:03;11.00;99.90
44271;DHT22;29963;44.594;11.368;2024-03-22T04:48:29;10.80;99.90
44271;DHT22;29963;44.594;11.368;2024-03-22T04:50:54;10.80;99.90
44271;DHT22;29963;44.594;11.368;2024-03-22T04:53:20;10.90;99.90
44271;DHT22;29963;44.594;11.368;2024-03-22T04:55:46;10.80;99.90
44271;DHT22;29963;44.594;11.368;2024-03-22T04:58:14;10.80;99.90
44271;DHT22;29963;44.594;11.368;2024-03-22T05:00:40;10.90;99.90
44271;DHT22;29963;44.594;11.368;2024-03-22T05:03:06;10.90;99.90
44271;DHT22;29963;44.594;11.368;2024-03-22T05:05:31;11.00;99.90
44271;DHT22;29963;44.594;11.368;2024-03-22T05:07:57;11.10;99.90
44271;DHT22;29963;44.594;11.368;2024-03-22T05:10:23;11.20;99.90
44271;DHT22;29963;44.594;11.368;2024-03-22T05:12:48;11.10;99.90
44271;DHT22;29963;44.594;11.368;2024-03-22T05:15:14;11.00;99.90
44271;DHT22;29963;44.594;11.368;2024-03-22T05:17:39;10.90;99.90
44271;DHT22;29963;44.594;11.368;2024-03-22T05:20:07;10.70;99.90
44271;DHT22;29963;44.594;11.368;2024-03-22T05:22:37;10.70;99.90
44271;DHT22;29963;44.594;11.368;2024-03-22T05:25:03;10.80;99.90
44271;DHT22;29963;44.594;11.368;2024-03-22T05:27:30;10.80;99.90
44271;DHT22;29963;44.594;11.368;2024-03-22T05:29:55;10.80;99.90
44271;DHT22;29963;44.594;11.368;2024-03-22T05:32:21;11.00;99.90
44271;DHT22;29963;44.594;11.368;2024-03-22T05:34:47;11.00;99.90
44271;DHT22;29963;44.594;11.368;2024-03-22T05:37:12;11.10;99.90
44271;DHT22;29963;44.594;11.368;2024-03-22T05:39:38;11.10;99.90
44271;DHT22;29963;44.594;11.368;2024-03-22T05:42:06;11.00;99.90
44271;DHT22;29963;44.594;11.368;2024-03-22T05:44:32;11.00;99.90
44271;DHT22;29963;44.594;11.368;2024-03-22T05:46:57;11.00;99.90
44271;DHT22;29963;44.594;11.368;2024-03-22T05:49:23;11.10;99.90
44271;DHT22;29963;44.594;11.368;2024-03-22T05:51:49;11.20;99.90
44271;DHT22;29963;44.594;11.368;2024-03-22T05:54:14;11.10;99.90
44271;DHT22;29963;44.594;11.368;2024-03-22T05:56:40;11.10;99.90
44271;DHT22;29963;44.594;11.368;2024-03-22T05:59:06;11.20;99.90
44271;DHT22;29963;44.594;11.368;2024-03-22T06:01:32;11.30;99.90
44271;DHT22;29963;44.594;11.368;2024-03-22T06:03:57;11.40;99.90
44271;DHT22;29963;44.594;11.368;2024-03-22T06:06:23;11.30;99.90
44271;DHT22;29963;44.594;11.368;2024-03-22T06:08:51;11.30;99.90
44271;DHT22;29963;44.594;11.368;2024-03-22T06:11:22;11.50;99.90
44271;DHT22;29963;44.594;11.368;2024-03-22T06:13:48;11.70;99.90
44271;DHT22;29963;44.594;11.368;2024-03-22T06:16:14;11.60;99.90
44271;DHT22;29963;44.594;11.368;2024-03-22T06:18:40;11.90;99.90
44271;DHT22;29963;44.594;11.368;2024-03-22T06:21:06;11.70;99.90
44271;DHT22;29963;44.594;11.368;2024-03-22T06:23:32;11.70;99.90
44271;DHT22;29963;44.594;11.368;2024-03-22T06:25:58;11.80;99.90
44271;DHT22;29963;44.594;11.368;2024-03-22T06:28:26;11.70;99.90
44271;DHT22;29963;44.594;11.368;2024-03-22T06:33:18;11.20;99.90
44271;DHT22;29963;44.594;11.368;2024-03-22T06:35:44;11.50;99.90
44271;DHT22;29963;44.594;11.368;2024-03-22T06:38:10;11.80;99.90
44271;DHT22;29963;44.594;11.368;2024-03-22T06:40:36;11.70;99.90
44271;DHT22;29963;44.594;11.368;2024-03-22T06:45:27;11.90;99.90
44271;DHT22;29963;44.594;11.368;2024-03-22T06:47:53;12.10;99.90
44271;DHT22;29963;44.594;11.368;2024-03-22T06:50:19;12.00;99.90
44271;DHT22;29963;44.594;11.368;2024-03-22T06:52:52;11.70;99.90
44271;DHT22;29963;44.594;11.368;2024-03-22T06:55:19;12.10;99.90
44271;DHT22;29963;44.594;11.368;2024-03-22T06:57:48;12.40;99.90
44271;DHT22;29963;44.594;11.368;2024-03-22T07:00:18;12.30;99.90
44271;DHT22;29963;44.594;11.368;2024-03-22T07:02:44;12.40;99.90
44271;DHT22;29963;44.594;11.368;2024-03-22T07:05:10;12.50;99.90
44271;DHT22;29963;44.594;11.368;2024-03-22T07:07:37;12.50;99.90
44271;DHT22;29963;44.594;11.368;2024-03-22T07:10:03;12.60;99.90
44271;DHT22;29963;44.594;11.368;2024-03-22T07:12:29;12.70;99.90
44271;DHT22;29963;44.594;11.368;2024-03-22T07:14:55;13.00;99.90
44271;DHT22;29963;44.594;11.368;2024-03-22T07:17:21;13.00;99.90
44271;DHT22;29963;44.594;11.368;2024-03-22T07:19:52;13.10;99.90
44271;DHT22;29963;44.594;11.368;2024-03-22T07:22:18;13.30;99.90
44271;DHT22;29963;44.594;11.368;2024-03-22T07:24:44;13.30;99.90
44271;DHT22;29963;44.594;11.368;2024-03-22T07:27:10;13.50;99.90
44271;DHT22;29963;44.594;11.368;2024-03-22T07:32:02;13.50;99.90
44271;DHT22;29963;44.594;11.368;2024-03-22T07:34:29;13.60;99.90
44271;DHT22;29963;44.594;11.368;2024-03-22T07:36:54;13.70;99.90
44271;DHT22;29963;44.594;11.368;2024-03-22T07:39:20;13.70;99.90
44271;DHT22;29963;44.594;11.368;2024-03-22T07:41:45;13.70;99.90
44271;DHT22;29963;44.594;11.368;2024-03-22T07:44:11;13.90;99.90
44271;DHT22;29963;44.594;11.368;2024-03-22T07:49:03;14.00;99.90
44271;DHT22;29963;44.594;11.368;2024-03-22T07:53:55;14.20;99.90
44271;DHT22;29963;44.594;11.368;2024-03-22T07:56:21;14.20;99.90
44271;DHT22;29963;44.594;11.368;2024-03-22T07:58:47;14.20;99.90
44271;DHT22;29963;44.594;11.368;2024-03-22T08:01:13;14.30;99.90
44271;DHT22;29963;44.594;11.368;2024-03-22T08:03:38;14.30;99.90
44271;DHT22;29963;44.594;11.368;2024-03-22T08:06:04;14.30;99.90
44271;DHT22;29963;44.594;11.368;2024-03-22T08:08:30;14.40;99.90
44271;DHT22;29963;44.594;11.368;2024-03-22T08:10:56;14.50;99.90
44271;DHT22;29963;44.594;11.368;2024-03-22T08:13:21;14.90;99.90
44271;DHT22;29963;44.594;11.368;2024-03-22T08:15:47;14.60;99.90
44271;DHT22;29963;44.594;11.368;2024-03-22T08:18:13;14.70;99.90
44271;DHT22;29963;44.594;11.368;2024-03-22T08:20:38;14.80;99.90
44271;DHT22;29963;44.594;11.368;2024-03-22T08:23:05;14.80;99.90
44271;DHT22;29963;44.594;11.368;2024-03-22T08:25:31;14.80;99.90
44271;DHT22;29963;44.594;11.368;2024-03-22T08:27:57;14.80;99.90
44271;DHT22;29963;44.594;11.368;2024-03-22T08:30:24;14.80;99.90
44271;DHT22;29963;44.594;11.368;2024-03-22T08:32:50;14.70;99.90
44271;DHT22;29963;44.594;11.368;2024-03-22T08:35:16;14.70;99.90
44271;DHT22;29963;44.594;11.368;2024-03-22T08:37:42;14.80;99.90
44271;DHT22;29963;44.594;11.368;2024-03-22T08:40:08;14.90;99.90
44271;DHT22;29963;44.594;11.368;2024-03-22T08:42:33;15.00;99.90
44271;DHT22;29963;44.594;11.368;2024-03-22T08:44:59;15.10;99.90
44271;DHT22;29963;44.594;11.368;2024-03-22T08:47:25;15.20;99.90
44271;DHT22;29963;44.594;11.368;2024-03-22T08:49:51;15.30;99.90
44271;DHT22;29963;44.594;11.368;2024-03-22T08:52:16;15.40;99.90
44271;DHT22;29963;44.594;11.368;2024-03-22T08:54:42;15.30;99.90
44271;DHT22;29963;44.594;11.368;2024-03-22T08:57:08;15.40;99.90
44271;DHT22;29963;44.594;11.368;2024-03-22T08:59:33;15.40;99.90
44271;DHT22;29963;44.594;11.368;2024-03-22T09:02:00;15.50;99.90
44271;DHT22;29963;44.594;11.368;2024-03-22T09:04:26;15.60;99.90
44271;DHT22;29963;44.594;11.368;2024-03-22T09:06:51;15.60;99.90
44271;DHT22;29963;44.594;11.368;2024-03-22T09:09:17;15.70;99.90
44271;DHT22;29963;44.594;11.368;2024-03-22T09:11:43;15.80;99.90
44271;DHT22;29963;44.594;11.368;2024-03-22T09:14:09;15.80;99.90
44271;DHT22;29963;44.594;11.368;2024-03-22T09:16:34;15.80;99.90
44271;DHT22;29963;44.594;11.368;2024-03-22T09:19:00;15.80;99.90
44271;DHT22;29963;44.594;11.368;2024-03-22T09:21:26;15.70;99.90
44271;DHT22;29963;44.594;11.368;2024-03-22T09:23:51;15.80;99.90
44271;DHT22;29963;44.594;11.368;2024-03-22T09:26:17;15.90;99.90
44271;DHT22;29963;44.594;11.368;2024-03-22T09:28:46;16.00;99.90
44271;DHT22;29963;44.594;11.368;2024-03-22T09:31:11;16.10;99.90
44271;DHT22;29963;44.594;11.368;2024-03-22T09:33:37;16.20;99.90
44271;DHT22;29963;44.594;11.368;2024-03-22T09:36:03;16.30;99.90
44271;DHT22;29963;44.594;11.368;2024-03-22T09:38:29;16.40;99.90
44271;DHT22;29963;44.594;11.368;2024-03-22T09:40:55;16.50;99.90
44271;DHT22;29963;44.594;11.368;2024-03-22T09:43:23;16.60;99.90
44271;DHT22;29963;44.594;11.368;2024-03-22T09:45:52;16.70;99.90
44271;DHT22;29963;44.594;11.368;2024-03-22T09:48:19;16.80;99.90
44271;DHT22;29963;44.594;11.368;2024-03-22T09:50:49;16.90;99.90
44271;DHT22;29963;44.594;11.368;2024-03-22T09:53:19;16.90;99.90
44271;DHT22;29963;44.594;11.368;2024-03-22T09:55:47;17.00;99.90
44271;DHT22;29963;44.594;11.368;2024-03-22T09:58:13;17.00;99.90
44271;DHT22;29963;44.594;11.368;2024-03-22T10:00:39;17.00;99.90
44271;DHT22;29963;44.594;11.368;2024-03-22T10:03:05;16.90;99.90
44271;DHT22;29963;44.594;11.368;2024-03-22T10:05:31;17.00;99.90
44271;DHT22;29963;44.594;11.368;2024-03-22T10:07:57;16.90;99.90
44271;DHT22;29963;44.594;11.368;2024-03-22T10:10:23;16.90;99.90
44271;DHT22;29963;44.594;11.368;2024-03-22T10:12:49;17.10;99.90
44271;DHT22;29963;44.594;11.368;2024-03-22T10:15:14;17.20;99.90
44271;DHT22;29963;44.594;11.368;2024-03-22T10:17:41;17.20;99.90
44271;DHT22;29963;44.594;11.368;2024-03-22T10:20:06;17.20;99.90
44271;DHT22;29963;44.594;11.368;2024-03-22T10:23:15;17.30;99.90
44271;DHT22;29963;44.594;11.368;2024-03-22T10:25:34;17.40;99.90
44271;DHT22;29963;44.594;11.368;2024-03-22T10:28:01;17.60;99.90
44271;DHT22;29963;44.594;11.368;2024-03-22T10:30:27;17.60;99.90
44271;DHT22;29963;44.594;11.368;2024-03-22T10:32:53;17.70;99.90
44271;DHT22;29963;44.594;11.368;2024-03-22T10:35:19;17.80;99.90
44271;DHT22;29963;44.594;11.368;2024-03-22T10:37:45;17.90;99.90
44271;DHT22;29963;44.594;11.368;2024-03-22T10:40:11;17.90;99.90
44271;DHT22;29963;44.594;11.368;2024-03-22T10:42:38;17.90;99.90
44271;DHT22;29963;44.594;11.368;2024-03-22T10:45:06;17.90;99.90
44271;DHT22;29963;44.594;11.368;2024-03-22T10:47:33;17.80;99.90
44271;DHT22;29963;44.594;11.368;2024-03-22T10:50:10;17.90;99.90
44271;DHT22;29963;44.594;11.368;2024-03-22T10:52:50;18.00;99.90
44271;DHT22;29963;44.594;11.368;2024-03-22T10:55:24;18.10;99.90
44271;DHT22;29963;44.594;11.368;2024-03-22T10:57:53;18.20;99.90
44271;DHT22;29963;44.594;11.368;2024-03-22T11:00:31;18.40;99.90
44271;DHT22;29963;44.594;11.368;2024-03-22T11:02:57;18.50;99.90
44271;DHT22;29963;44.594;11.368;2024-03-22T11:05:23;18.60;99.90
44271;DHT22;29963;44.594;11.368;2024-03-22T11:08:05;18.60;99.90
44271;DHT22;29963;44.594;11.368;2024-03-22T11:10:34;18.70;99.90
44271;DHT22;29963;44.594;11.368;2024-03-22T11:13:04;18.70;99.90
44271;DHT22;29963;44.594;11.368;2024-03-22T11:15:30;18.80;99.90
44271;DHT22;29963;44.594;11.368;2024-03-22T11:17:57;18.80;99.90
44271;DHT22;29963;44.594;11.368;2024-03-22T11:20:23;18.80;99.90
44271;DHT22;29963;44.594;11.368;2024-03-22T11:22:50;18.90;99.90
44271;DHT22;29963;44.594;11.368;2024-03-22T11:25:18;18.90;99.90
44271;DHT22;29963;44.594;11.368;2024-03-22T11:27:44;19.00;99.90
44271;DHT22;29963;44.594;11.368;2024-03-22T11:30:10;19.10;99.90
44271;DHT22;29963;44.594;11.368;2024-03-22T11:32:36;19.10;99.90
44271;DHT22;29963;44.594;11.368;2024-03-22T11:35:10;19.20;99.90
44271;DHT22;29963;44.594;11.368;2024-03-22T11:37:38;19.20;99.90
44271;DHT22;29963;44.594;11.368;2024-03-22T11:40:04;19.20;99.90
44271;DHT22;29963;44.594;11.368;2024-03-22T11:42:32;19.30;99.90
44271;DHT22;29963;44.594;11.368;2024-03-22T11:44:59;19.40;99.90
44271;DHT22;29963;44.594;11.368;2024-03-22T11:47:25;19.40;99.90
44271;DHT22;29963;44.594;11.368;2024-03-22T11:49:50;19.50;99.90
44271;DHT22;29963;44.594;11.368;2024-03-22T11:52:16;19.50;99.90
44271;DHT22;29963;44.594;11.368;2024-03-22T11:54:42;19.50;99.90
44271;DHT22;29963;44.594;11.368;2024-03-22T11:57:09;19.50;99.90
44271;DHT22;29963;44.594;11.368;2024-03-22T11:59:35;19.60;99.90
44271;DHT22;29963;44.594;11.368;2024-03-22T12:02:00;19.50;99.90
44271;DHT22;29963;44.594;11.368;2024-03-22T12:04:26;19.60;99.90
44271;DHT22;29963;44.594;11.368;2024-03-22T12:06:52;19.60;99.90
44271;DHT22;29963;44.594;11.368;2024-03-22T12:09:19;19.70;99.90
44271;DHT22;29963;44.594;11.368;2024-03-22T12:11:44;19.80;99.90
44271;DHT22;29963;44.594;11.368;2024-03-22T12:14:10;19.80;99.90
44271;DHT22;29963;44.594;11.368;2024-03-22T12:16:36;19.60;99.90
44271;DHT22;29963;44.594;11.368;2024-03-22T12:19:01;19.90;99.90
44271;DHT22;29963;44.594;11.368;2024-03-22T12:21:28;19.90;99.90
44271;DHT22;29963;44.594;11.368;2024-03-22T12:23:54;20.00;99.90
44271;DHT22;29963;44.594;11.368;2024-03-22T12:26:20;20.00;99.90
44271;DHT22;29963;44.594;11.368;2024-03-22T12:28:45;20.00;99.90
44271;DHT22;29963;44.594;11.368;2024-03-22T12:33:37;20.10;99.90
44271;DHT22;29963;44.594;11.368;2024-03-22T12:36:04;20.10;99.90
44271;DHT22;29963;44.594;11.368;2024-03-22T12:38:30;20.10;99.90
44271;DHT22;29963;44.594;11.368;2024-03-22T12:40:56;20.10;99.90
44271;DHT22;29963;44.594;11.368;2024-03-22T12:43:22;20.20;99.90
44271;DHT22;29963;44.594;11.368;2024-03-22T12:45:47;20.20;99.90
44271;DHT22;29963;44.594;11.368;2024-03-22T12:48:13;20.20;99.90
44271;DHT22;29963;44.594;11.368;2024-03-22T12:50:39;20.30;99.90
44271;DHT22;29963;44.594;11.368;2024-03-22T12:53:04;20.40;99.90
44271;DHT22;29963;44.594;11.368;2024-03-22T12:57:57;20.10;99.90
44271;DHT22;29963;44.594;11.368;2024-03-22T13:00:23;20.40;99.90
44271;DHT22;29963;44.594;11.368;2024-03-22T13:02:49;20.40;99.90
44271;DHT22;29963;44.594;11.368;2024-03-22T13:05:14;20.40;99.90
44271;DHT22;29963;44.594;11.368;2024-03-22T13:07:41;20.40;99.90
44271;DHT22;29963;44.594;11.368;2024-03-22T13:10:08;20.50;99.90
44271;DHT22;29963;44.594;11.368;2024-03-22T13:12:34;20.70;99.90
44271;DHT22;29963;44.594;11.368;2024-03-22T13:15:03;20.80;99.90
44271;DHT22;29963;44.594;11.368;2024-03-22T13:17:29;20.90;99.90
44271;DHT22;29963;44.594;11.368;2024-03-22T13:19:55;21.00;99.90
44271;DHT22;29963;44.594;11.368;2024-03-22T13:22:21;21.10;99.90
44271;DHT22;29963;44.594;11.368;2024-03-22T13:24:47;21.20;99.90
44271;DHT22;29963;44.594;11.368;2024-03-22T13:27:13;21.30;99.90
44271;DHT22;29963;44.594;11.368;2024-03-22T13:29:42;21.30;99.90
44271;DHT22;29963;44.594;11.368;2024-03-22T13:32:08;21.50;99.90
44271;DHT22;29963;44.594;11.368;2024-03-22T13:34:37;21.50;99.90
44271;DHT22;29963;44.594;11.368;2024-03-22T13:37:03;21.70;99.90
44271;DHT22;29963;44.594;11.368;2024-03-22T13:39:29;21.70;99.90
44271;DHT22;29963;44.594;11.368;2024-03-22T13:41:58;21.70;99.90
44271;DHT22;29963;44.594;11.368;2024-03-22T13:44:24;21.70;99.90
44271;DHT22;29963;44.594;11.368;2024-03-22T13:46:50;21.70;99.90
44271;DHT22;29963;44.594;11.368;2024-03-22T13:49:17;21.80;99.90
44271;DHT22;29963;44.594;11.368;2024-03-22T13:51:44;21.90;99.90
44271;DHT22;29963;44.594;11.368;2024-03-22T13:54:11;22.10;99.90
44271;DHT22;29963;44.594;11.368;2024-03-22T13:56:37;22.30;99.90
44271;DHT22;29963;44.594;11.368;2024-03-22T13:59:04;22.40;99.90
44271;DHT22;29963;44.594;11.368;2024-03-22T14:01:37;22.50;99.90
44271;DHT22;29963;44.594;11.368;2024-03-22T14:04:05;22.70;99.90
44271;DHT22;29963;44.594;11.368;2024-03-22T14:06:32;22.90;99.90
44271;DHT22;29963;44.594;11.368;2024-03-22T14:08:58;23.10;99.90
44271;DHT22;29963;44.594;11.368;2024-03-22T14:11:30;23.20;99.90
44271;DHT22;29963;44.594;11.368;2024-03-22T14:13:57;23.30;99.90
44271;DHT22;29963;44.594;11.368;2024-03-22T14:16:22;23.50;99.90
44271;DHT22;29963;44.594;11.368;2024-03-22T14:18:48;23.70;99.90
44271;DHT22;29963;44.594;11.368;2024-03-22T14:21:15;23.70;99.10
44271;DHT22;29963;44.594;11.368;2024-03-22T14:23:48;23.80;99.50
44271;DHT22;29963;44.594;11.368;2024-03-22T14:26:16;23.90;99.50
44271;DHT22;29963;44.594;11.368;2024-03-22T14:28:42;24.10;99.70
44271;DHT22;29963;44.594;11.368;2024-03-22T14:31:08;24.30;99.10
44271;DHT22;29963;44.594;11.368;2024-03-22T14:33:35;24.40;97.70
44271;DHT22;29963;44.594;11.368;2024-03-22T14:36:04;24.60;96.70
44271;DHT22;29963;44.594;11.368;2024-03-22T14:38:30;24.60;95.90
44271;DHT22;29963;44.594;11.368;2024-03-22T14:40:56;24.80;96.50
44271;DHT22;29963;44.594;11.368;2024-03-22T14:43:24;25.00;95.80
44271;DHT22;29963;44.594;11.368;2024-03-22T14:45:50;25.30;96.20
44271;DHT22;29963;44.594;11.368;2024-03-22T14:48:21;25.50;95.20
44271;DHT22;29963;44.594;11.368;2024-03-22T14:50:47;25.90;94.30
44271;DHT22;29963;44.594;11.368;2024-03-22T14:53:13;26.20;94.40
44271;DHT22;29963;44.594;11.368;2024-03-22T14:55:40;26.80;94.00
44271;DHT22;29963;44.594;11.368;2024-03-22T14:58:06;27.30;92.20
44271;DHT22;29963;44.594;11.368;2024-03-22T15:00:32;27.70;91.30
44271;DHT22;29963;44.594;11.368;2024-03-22T15:02:59;28.10;89.40
44271;DHT22;29963;44.594;11.368;2024-03-22T15:05:24;28.50;87.20
44271;DHT22;29963;44.594;11.368;2024-03-22T15:07:50;28.80;81.70
44271;DHT22;29963;44.594;11.368;2024-03-22T15:10:15;28.70;78.10
44271;DHT22;29963;44.594;11.368;2024-03-22T15:12:41;28.90;81.60
44271;DHT22;29963;44.594;11.368;2024-03-22T15:15:07;29.60;81.20
44271;DHT22;29963;44.594;11.368;2024-03-22T15:17:33;30.30;76.30
44271;DHT22;29963;44.594;11.368;2024-03-22T15:20:00;30.40;74.20
44271;DHT22;29963;44.594;11.368;2024-03-22T15:22:25;30.50;74.80
44271;DHT22;29963;44.594;11.368;2024-03-22T15:24:51;30.60;72.30
44271;DHT22;29963;44.594;11.368;2024-03-22T15:27:18;30.70;69.50
44271;DHT22;29963;44.594;11.368;2024-03-22T15:29:44;30.70;67.10